sensor_id;sensor_type;location;lat;lon;timestamp;P1;durP1;ratioP1;P2;durP2;ratioP2
22024;SDS011;11176;51.448;6.650;2023-03-20T00:00:27;18.15;;;10.80;;
22024;SDS011;11176;51.448;6.650;2023-03-20T00:02:56;13.55;;;10.10;;
22024;SDS011;11176;51.448;6.650;2023-03-20T00:05:23;15.05;;;10.88;;
22024;SDS011;11176;51.448;6.650;2023-03-20T00:07:51;11.95;;;9.70;;
22024;SDS011;11176;51.448;6.650;2023-03-20T00:10:18;15.73;;;11.10;;
22024;SDS011;11176;51.448;6.650;2023-03-20T00:12:46;15.15;;;10.75;;
22024;SDS011;11176;51.448;6.650;2023-03-20T00:15:31;16.27;;;11.45;;
22024;SDS011;11176;51.448;6.650;2023-03-20T00:18:02;14.50;;;10.75;;
22024;SDS011;11176;51.448;6.650;2023-03-20T00:20:29;16.58;;;10.50;;
22024;SDS011;11176;51.448;6.650;2023-03-20T00:22:56;15.20;;;11.25;;
22024;SDS011;11176;51.448;6.650;2023-03-20T00:25:23;14.45;;;10.30;;
22024;SDS011;11176;51.448;6.650;2023-03-20T00:27:52;16.35;;;11.13;;
22024;SDS011;11176;51.448;6.650;2023-03-20T00:30:19;15.88;;;10.95;;
22024;SDS011;11176;51.448;6.650;2023-03-20T00:32:55;13.93;;;9.60;;
22024;SDS011;11176;51.448;6.650;2023-03-20T00:35:24;13.60;;;9.65;;
22024;SDS011;11176;51.448;6.650;2023-03-20T00:37:54;11.80;;;8.68;;
22024;SDS011;11176;51.448;6.650;2023-03-20T00:40:24;13.48;;;9.38;;
22024;SDS011;11176;51.448;6.650;2023-03-20T00:42:58;12.27;;;8.52;;
22024;SDS011;11176;51.448;6.650;2023-03-20T00:45:28;11.23;;;8.10;;
22024;SDS011;11176;51.448;6.650;2023-03-20T00:47:56;12.15;;;8.25;;
22024;SDS011;11176;51.448;6.650;2023-03-20T00:50:27;13.20;;;8.00;;
22024;SDS011;11176;51.448;6.650;2023-03-20T00:52:57;11.18;;;7.82;;
22024;SDS011;11176;51.448;6.650;2023-03-20T00:55:26;12.05;;;8.15;;
22024;SDS011;11176;51.448;6.650;2023-03-20T00:57:58;13.85;;;8.73;;
22024;SDS011;11176;51.448;6.650;2023-03-20T01:02:56;12.00;;;8.05;;
22024;SDS011;11176;51.448;6.650;2023-03-20T01:05:25;11.75;;;8.48;;
22024;SDS011;11176;51.448;6.650;2023-03-20T01:07:53;10.82;;;8.38;;
22024;SDS011;11176;51.448;6.650;2023-03-20T01:10:20;12.55;;;8.13;;
22024;SDS011;11176;51.448;6.650;2023-03-20T01:12:51;11.75;;;7.72;;
22024;SDS011;11176;51.448;6.650;2023-03-20T01:15:19;13.70;;;8.25;;
22024;SDS011;11176;51.448;6.650;2023-03-20T01:17:48;11.85;;;8.10;;
22024;SDS011;11176;51.448;6.650;2023-03-20T01:20:20;13.35;;;8.73;;
22024;SDS011;11176;51.448;6.650;2023-03-20T01:22:56;11.85;;;7.40;;
22024;SDS011;11176;51.448;6.650;2023-03-20T01:25:22;11.15;;;7.38;;
22024;SDS011;11176;51.448;6.650;2023-03-20T01:27:50;9.48;;;6.97;;
22024;SDS011;11176;51.448;6.650;2023-03-20T01:32:50;10.05;;;6.97;;
22024;SDS011;11176;51.448;6.650;2023-03-20T01:35:19;10.23;;;6.90;;
22024;SDS011;11176;51.448;6.650;2023-03-20T01:37:48;8.98;;;6.63;;
22024;SDS011;11176;51.448;6.650;2023-03-20T01:40:31;10.98;;;7.03;;
22024;SDS011;11176;51.448;6.650;2023-03-20T01:43:13;9.68;;;6.65;;
22024;SDS011;11176;51.448;6.650;2023-03-20T01:45:55;8.38;;;5.90;;
22024;SDS011;11176;51.448;6.650;2023-03-20T01:51:17;10.27;;;6.75;;
22024;SDS011;11176;51.448;6.650;2023-03-20T01:53:46;11.07;;;7.25;;
22024;SDS011;11176;51.448;6.650;2023-03-20T01:56:17;9.80;;;6.78;;
22024;SDS011;11176;51.448;6.650;2023-03-20T01:58:49;10.63;;;7.25;;
22024;SDS011;11176;51.448;6.650;2023-03-20T02:01:23;10.00;;;6.93;;
22024;SDS011;11176;51.448;6.650;2023-03-20T02:03:53;12.10;;;7.57;;
22024;SDS011;11176;51.448;6.650;2023-03-20T02:06:41;10.40;;;6.72;;
22024;SDS011;11176;51.448;6.650;2023-03-20T02:09:16;11.57;;;7.60;;
22024;SDS011;11176;51.448;6.650;2023-03-20T02:11:44;9.60;;;6.72;;
22024;SDS011;11176;51.448;6.650;2023-03-20T02:14:13;10.18;;;7.10;;
22024;SDS011;11176;51.448;6.650;2023-03-20T02:16:52;10.52;;;7.18;;
22024;SDS011;11176;51.448;6.650;2023-03-20T02:30:40;9.73;;;6.85;;
22024;SDS011;11176;51.448;6.650;2023-03-20T02:33:26;11.27;;;7.45;;
22024;SDS011;11176;51.448;6.650;2023-03-20T02:41:59;10.63;;;7.40;;
22024;SDS011;11176;51.448;6.650;2023-03-20T02:44:46;13.10;;;7.65;;
22024;SDS011;11176;51.448;6.650;2023-03-20T02:48:09;11.95;;;7.47;;
22024;SDS011;11176;51.448;6.650;2023-03-20T02:50:36;14.90;;;8.18;;
22024;SDS011;11176;51.448;6.650;2023-03-20T03:02:07;11.57;;;7.97;;
22024;SDS011;11176;51.448;6.650;2023-03-20T03:04:44;11.10;;;7.60;;
22024;SDS011;11176;51.448;6.650;2023-03-20T03:07:16;11.70;;;8.38;;
22024;SDS011;11176;51.448;6.650;2023-03-20T03:09:52;11.73;;;8.30;;
22024;SDS011;11176;51.448;6.650;2023-03-20T03:12:23;11.02;;;7.68;;
22024;SDS011;11176;51.448;6.650;2023-03-20T03:15:00;13.98;;;8.55;;
22024;SDS011;11176;51.448;6.650;2023-03-20T03:17:31;13.40;;;8.38;;
22024;SDS011;11176;51.448;6.650;2023-03-20T03:20:02;14.30;;;8.93;;
22024;SDS011;11176;51.448;6.650;2023-03-20T03:22:32;12.32;;;8.52;;
22024;SDS011;11176;51.448;6.650;2023-03-20T03:25:01;12.38;;;8.73;;
22024;SDS011;11176;51.448;6.650;2023-03-20T03:27:31;14.55;;;9.07;;
22024;SDS011;11176;51.448;6.650;2023-03-20T03:30:06;14.73;;;8.75;;
22024;SDS011;11176;51.448;6.650;2023-03-20T03:32:39;13.48;;;8.57;;
22024;SDS011;11176;51.448;6.650;2023-03-20T03:35:28;12.25;;;8.23;;
22024;SDS011;11176;51.448;6.650;2023-03-20T03:38:00;12.77;;;8.70;;
22024;SDS011;11176;51.448;6.650;2023-03-20T03:45:52;15.75;;;9.43;;
22024;SDS011;11176;51.448;6.650;2023-03-20T03:48:25;12.93;;;9.20;;
22024;SDS011;11176;51.448;6.650;2023-03-20T03:51:02;15.63;;;9.38;;
22024;SDS011;11176;51.448;6.650;2023-03-20T03:53:40;14.15;;;9.02;;
22024;SDS011;11176;51.448;6.650;2023-03-20T03:56:15;13.18;;;9.00;;
22024;SDS011;11176;51.448;6.650;2023-03-20T03:58:47;15.65;;;10.13;;
22024;SDS011;11176;51.448;6.650;2023-03-20T04:01:17;15.40;;;10.18;;
22024;SDS011;11176;51.448;6.650;2023-03-20T04:03:51;14.95;;;9.60;;
22024;SDS011;11176;51.448;6.650;2023-03-20T04:06:21;14.40;;;10.30;;
22024;SDS011;11176;51.448;6.650;2023-03-20T04:08:49;14.45;;;9.35;;
22024;SDS011;11176;51.448;6.650;2023-03-20T04:11:21;16.30;;;10.50;;
22024;SDS011;11176;51.448;6.650;2023-03-20T04:13:49;15.30;;;9.27;;
22024;SDS011;11176;51.448;6.650;2023-03-20T04:16:19;15.05;;;10.00;;
22024;SDS011;11176;51.448;6.650;2023-03-20T04:18:47;14.70;;;9.48;;
22024;SDS011;11176;51.448;6.650;2023-03-20T04:21:14;15.95;;;10.13;;
22024;SDS011;11176;51.448;6.650;2023-03-20T04:23:42;15.50;;;10.10;;
22024;SDS011;11176;51.448;6.650;2023-03-20T04:26:09;16.13;;;10.43;;
22024;SDS011;11176;51.448;6.650;2023-03-20T04:28:35;13.45;;;9.27;;
22024;SDS011;11176;51.448;6.650;2023-03-20T04:31:36;15.65;;;11.02;;
22024;SDS011;11176;51.448;6.650;2023-03-20T04:34:10;20.02;;;11.82;;
22024;SDS011;11176;51.448;6.650;2023-03-20T04:36:57;23.85;;;13.02;;
22024;SDS011;11176;51.448;6.650;2023-03-20T04:39:33;22.35;;;13.70;;
22024;SDS011;11176;51.448;6.650;2023-03-20T04:42:02;22.00;;;14.05;;
22024;SDS011;11176;51.448;6.650;2023-03-20T04:44:30;25.55;;;14.70;;
22024;SDS011;11176;51.448;6.650;2023-03-20T04:46:56;20.88;;;13.55;;
22024;SDS011;11176;51.448;6.650;2023-03-20T04:49:23;22.13;;;15.05;;
22024;SDS011;11176;51.448;6.650;2023-03-20T04:51:50;23.35;;;14.75;;
22024;SDS011;11176;51.448;6.650;2023-03-20T04:54:26;20.90;;;13.68;;
22024;SDS011;11176;51.448;6.650;2023-03-20T04:56:52;22.83;;;14.60;;
22024;SDS011;11176;51.448;6.650;2023-03-20T04:59:19;22.00;;;14.48;;
22024;SDS011;11176;51.448;6.650;2023-03-20T05:01:46;23.20;;;15.65;;
22024;SDS011;11176;51.448;6.650;2023-03-20T05:04:12;23.83;;;15.15;;
22024;SDS011;11176;51.448;6.650;2023-03-20T05:06:39;25.67;;;15.13;;
22024;SDS011;11176;51.448;6.650;2023-03-20T05:09:05;23.30;;;14.90;;
22024;SDS011;11176;51.448;6.650;2023-03-20T05:11:34;28.65;;;15.35;;
22024;SDS011;11176;51.448;6.650;2023-03-20T05:14:00;26.90;;;15.50;;
22024;SDS011;11176;51.448;6.650;2023-03-20T05:16:27;23.38;;;14.20;;
22024;SDS011;11176;51.448;6.650;2023-03-20T05:19:11;23.00;;;14.35;;
22024;SDS011;11176;51.448;6.650;2023-03-20T05:21:51;24.40;;;14.77;;
22024;SDS011;11176;51.448;6.650;2023-03-20T05:24:37;22.65;;;13.52;;
22024;SDS011;11176;51.448;6.650;2023-03-20T05:27:22;19.17;;;13.00;;
22024;SDS011;11176;51.448;6.650;2023-03-20T05:30:00;22.55;;;12.30;;
22024;SDS011;11176;51.448;6.650;2023-03-20T05:32:53;15.63;;;10.52;;
22024;SDS011;11176;51.448;6.650;2023-03-20T05:35:35;16.75;;;10.77;;
22024;SDS011;11176;51.448;6.650;2023-03-20T05:38:19;17.15;;;11.18;;
22024;SDS011;11176;51.448;6.650;2023-03-20T05:41:00;21.92;;;11.10;;
22024;SDS011;11176;51.448;6.650;2023-03-20T05:43:41;18.15;;;10.18;;
22024;SDS011;11176;51.448;6.650;2023-03-20T05:46:26;17.23;;;10.68;;
22024;SDS011;11176;51.448;6.650;2023-03-20T05:49:11;17.38;;;10.75;;
22024;SDS011;11176;51.448;6.650;2023-03-20T05:52:09;16.65;;;10.65;;
22024;SDS011;11176;51.448;6.650;2023-03-20T05:54:45;16.27;;;10.02;;
22024;SDS011;11176;51.448;6.650;2023-03-20T05:57:35;14.57;;;9.35;;
22024;SDS011;11176;51.448;6.650;2023-03-20T06:00:34;12.60;;;8.52;;
22024;SDS011;11176;51.448;6.650;2023-03-20T06:03:24;16.75;;;8.98;;
22024;SDS011;11176;51.448;6.650;2023-03-20T06:06:02;14.55;;;8.93;;
22024;SDS011;11176;51.448;6.650;2023-03-20T06:08:29;15.00;;;9.65;;
22024;SDS011;11176;51.448;6.650;2023-03-20T06:10:58;15.50;;;9.43;;
22024;SDS011;11176;51.448;6.650;2023-03-20T06:13:25;15.15;;;9.20;;
22024;SDS011;11176;51.448;6.650;2023-03-20T06:15:51;14.73;;;9.68;;
22024;SDS011;11176;51.448;6.650;2023-03-20T06:18:18;17.40;;;9.90;;
22024;SDS011;11176;51.448;6.650;2023-03-20T06:20:44;16.60;;;9.15;;
22024;SDS011;11176;51.448;6.650;2023-03-20T06:23:12;13.85;;;9.43;;
22024;SDS011;11176;51.448;6.650;2023-03-20T06:25:39;15.00;;;9.38;;
22024;SDS011;11176;51.448;6.650;2023-03-20T06:28:06;13.65;;;8.70;;
22024;SDS011;11176;51.448;6.650;2023-03-20T06:30:33;15.63;;;9.20;;
22024;SDS011;11176;51.448;6.650;2023-03-20T06:33:00;12.13;;;7.95;;
22024;SDS011;11176;51.448;6.650;2023-03-20T06:35:35;14.52;;;8.25;;
22024;SDS011;11176;51.448;6.650;2023-03-20T06:38:02;13.02;;;7.82;;
22024;SDS011;11176;51.448;6.650;2023-03-20T06:40:29;13.38;;;8.38;;
22024;SDS011;11176;51.448;6.650;2023-03-20T06:42:56;11.88;;;7.82;;
22024;SDS011;11176;51.448;6.650;2023-03-20T06:45:30;12.40;;;7.30;;
22024;SDS011;11176;51.448;6.650;2023-03-20T06:47:59;12.20;;;7.25;;
22024;SDS011;11176;51.448;6.650;2023-03-20T06:50:26;14.75;;;8.00;;
22024;SDS011;11176;51.448;6.650;2023-03-20T06:52:54;12.65;;;7.22;;
22024;SDS011;11176;51.448;6.650;2023-03-20T06:55:41;13.05;;;6.38;;
22024;SDS011;11176;51.448;6.650;2023-03-20T06:58:08;11.68;;;7.10;;
22024;SDS011;11176;51.448;6.650;2023-03-20T07:00:36;15.20;;;8.10;;
22024;SDS011;11176;51.448;6.650;2023-03-20T07:03:04;18.25;;;7.63;;
22024;SDS011;11176;51.448;6.650;2023-03-20T07:05:31;12.73;;;7.78;;
22024;SDS011;11176;51.448;6.650;2023-03-20T07:07:59;13.10;;;7.97;;
22024;SDS011;11176;51.448;6.650;2023-03-20T07:10:26;14.68;;;7.38;;
22024;SDS011;11176;51.448;6.650;2023-03-20T07:12:54;13.25;;;7.93;;
22024;SDS011;11176;51.448;6.650;2023-03-20T07:15:21;15.45;;;8.93;;
22024;SDS011;11176;51.448;6.650;2023-03-20T07:17:48;16.48;;;9.10;;
22024;SDS011;11176;51.448;6.650;2023-03-20T07:20:15;17.30;;;8.70;;
22024;SDS011;11176;51.448;6.650;2023-03-20T07:22:42;19.80;;;9.65;;
22024;SDS011;11176;51.448;6.650;2023-03-20T07:25:14;19.08;;;9.68;;
22024;SDS011;11176;51.448;6.650;2023-03-20T07:27:41;16.85;;;9.90;;
22024;SDS011;11176;51.448;6.650;2023-03-20T07:30:11;20.58;;;10.77;;
22024;SDS011;11176;51.448;6.650;2023-03-20T07:32:38;17.55;;;9.82;;
22024;SDS011;11176;51.448;6.650;2023-03-20T07:35:05;17.65;;;10.07;;
22024;SDS011;11176;51.448;6.650;2023-03-20T07:37:32;20.42;;;10.25;;
22024;SDS011;11176;51.448;6.650;2023-03-20T07:40:00;17.73;;;10.05;;
22024;SDS011;11176;51.448;6.650;2023-03-20T07:42:33;15.57;;;9.55;;
22024;SDS011;11176;51.448;6.650;2023-03-20T07:45:11;19.27;;;9.90;;
22024;SDS011;11176;51.448;6.650;2023-03-20T07:47:43;17.70;;;9.93;;
22024;SDS011;11176;51.448;6.650;2023-03-20T07:50:10;16.67;;;10.05;;
22024;SDS011;11176;51.448;6.650;2023-03-20T07:52:37;18.58;;;10.45;;
22024;SDS011;11176;51.448;6.650;2023-03-20T07:55:03;18.92;;;9.77;;
22024;SDS011;11176;51.448;6.650;2023-03-20T07:57:31;17.67;;;10.65;;
22024;SDS011;11176;51.448;6.650;2023-03-20T07:59:57;17.58;;;9.32;;
22024;SDS011;11176;51.448;6.650;2023-03-20T08:02:24;19.55;;;10.15;;
22024;SDS011;11176;51.448;6.650;2023-03-20T08:04:51;19.35;;;9.98;;
22024;SDS011;11176;51.448;6.650;2023-03-20T08:07:17;18.48;;;9.60;;
22024;SDS011;11176;51.448;6.650;2023-03-20T08:09:44;16.55;;;9.43;;
22024;SDS011;11176;51.448;6.650;2023-03-20T08:12:10;16.17;;;9.00;;
22024;SDS011;11176;51.448;6.650;2023-03-20T08:14:37;14.00;;;7.90;;
22024;SDS011;11176;51.448;6.650;2023-03-20T08:17:04;15.23;;;7.70;;
22024;SDS011;11176;51.448;6.650;2023-03-20T08:19:41;16.05;;;7.65;;
22024;SDS011;11176;51.448;6.650;2023-03-20T08:22:07;14.40;;;7.25;;
22024;SDS011;11176;51.448;6.650;2023-03-20T08:24:34;13.52;;;7.45;;
22024;SDS011;11176;51.448;6.650;2023-03-20T08:27:00;13.27;;;7.10;;
22024;SDS011;11176;51.448;6.650;2023-03-20T08:29:27;10.45;;;6.32;;
22024;SDS011;11176;51.448;6.650;2023-03-20T08:31:53;14.75;;;6.53;;
22024;SDS011;11176;51.448;6.650;2023-03-20T08:34:21;12.75;;;6.38;;
22024;SDS011;11176;51.448;6.650;2023-03-20T08:36:49;11.45;;;6.55;;
22024;SDS011;11176;51.448;6.650;2023-03-20T08:39:19;12.75;;;6.28;;
22024;SDS011;11176;51.448;6.650;2023-03-20T08:41:46;14.15;;;6.43;;
22024;SDS011;11176;51.448;6.650;2023-03-20T08:44:13;10.98;;;6.05;;
22024;SDS011;11176;51.448;6.650;2023-03-20T08:46:40;11.98;;;5.57;;
22024;SDS011;11176;51.448;6.650;2023-03-20T08:49:08;12.60;;;5.45;;
22024;SDS011;11176;51.448;6.650;2023-03-20T08:51:35;13.18;;;5.80;;
22024;SDS011;11176;51.448;6.650;2023-03-20T08:54:01;11.55;;;5.68;;
22024;SDS011;11176;51.448;6.650;2023-03-20T08:56:28;10.35;;;5.40;;
22024;SDS011;11176;51.448;6.650;2023-03-20T08:58:54;7.82;;;4.65;;
22024;SDS011;11176;51.448;6.650;2023-03-20T09:01:21;10.23;;;5.18;;
22024;SDS011;11176;51.448;6.650;2023-03-20T09:03:48;9.02;;;4.70;;
22024;SDS011;11176;51.448;6.650;2023-03-20T09:06:14;9.07;;;4.57;;
22024;SDS011;11176;51.448;6.650;2023-03-20T09:08:41;9.43;;;4.72;;
22024;SDS011;11176;51.448;6.650;2023-03-20T09:11:07;7.78;;;4.10;;
22024;SDS011;11176;51.448;6.650;2023-03-20T09:13:34;8.15;;;4.28;;
22024;SDS011;11176;51.448;6.650;2023-03-20T09:16:01;9.75;;;4.60;;
22024;SDS011;11176;51.448;6.650;2023-03-20T09:18:28;10.07;;;4.55;;
22024;SDS011;11176;51.448;6.650;2023-03-20T09:20:55;8.15;;;4.50;;
22024;SDS011;11176;51.448;6.650;2023-03-20T09:23:22;11.15;;;4.25;;
22024;SDS011;11176;51.448;6.650;2023-03-20T09:25:48;10.98;;;4.28;;
22024;SDS011;11176;51.448;6.650;2023-03-20T09:28:15;8.65;;;4.28;;
22024;SDS011;11176;51.448;6.650;2023-03-20T09:30:41;10.93;;;4.40;;
22024;SDS011;11176;51.448;6.650;2023-03-20T09:33:09;9.05;;;4.13;;
22024;SDS011;11176;51.448;6.650;2023-03-20T09:35:37;8.80;;;4.07;;
22024;SDS011;11176;51.448;6.650;2023-03-20T09:38:03;11.10;;;4.05;;
22024;SDS011;11176;51.448;6.650;2023-03-20T09:40:32;9.25;;;3.58;;
22024;SDS011;11176;51.448;6.650;2023-03-20T09:49:12;9.63;;;3.40;;
22024;SDS011;11176;51.448;6.650;2023-03-20T09:51:52;9.57;;;3.65;;
22024;SDS011;11176;51.448;6.650;2023-03-20T09:54:23;8.85;;;3.83;;
22024;SDS011;11176;51.448;6.650;2023-03-20T09:57:19;8.18;;;3.42;;
22024;SDS011;11176;51.448;6.650;2023-03-20T09:59:49;8.90;;;3.38;;
22024;SDS011;11176;51.448;6.650;2023-03-20T10:02:24;7.05;;;3.35;;
22024;SDS011;11176;51.448;6.650;2023-03-20T10:05:26;9.43;;;3.85;;
22024;SDS011;11176;51.448;6.650;2023-03-20T10:08:05;9.02;;;3.95;;
22024;SDS011;11176;51.448;6.650;2023-03-20T10:16:18;7.93;;;3.53;;
22024;SDS011;11176;51.448;6.650;2023-03-20T10:19:17;8.07;;;4.15;;
22024;SDS011;11176;51.448;6.650;2023-03-20T10:24:57;8.68;;;3.45;;
22024;SDS011;11176;51.448;6.650;2023-03-20T10:27:39;11.02;;;3.80;;
22024;SDS011;11176;51.448;6.650;2023-03-20T10:33:12;11.38;;;4.20;;
22024;SDS011;11176;51.448;6.650;2023-03-20T10:36:09;8.88;;;3.33;;
22024;SDS011;11176;51.448;6.650;2023-03-20T10:38:42;10.07;;;3.60;;
22024;SDS011;11176;51.448;6.650;2023-03-20T10:41:15;8.32;;;3.40;;
22024;SDS011;11176;51.448;6.650;2023-03-20T10:43:44;7.38;;;3.58;;
22024;SDS011;11176;51.448;6.650;2023-03-20T10:46:24;6.00;;;2.80;;
22024;SDS011;11176;51.448;6.650;2023-03-20T10:51:30;8.07;;;3.05;;
22024;SDS011;11176;51.448;6.650;2023-03-20T10:54:23;6.30;;;2.83;;
22024;SDS011;11176;51.448;6.650;2023-03-20T10:56:52;8.68;;;3.05;;
22024;SDS011;11176;51.448;6.650;2023-03-20T10:59:41;9.57;;;3.20;;
22024;SDS011;11176;51.448;6.650;2023-03-20T11:02:10;11.38;;;2.97;;
22024;SDS011;11176;51.448;6.650;2023-03-20T11:04:38;7.70;;;2.70;;
22024;SDS011;11176;51.448;6.650;2023-03-20T11:09:34;6.25;;;2.97;;
22024;SDS011;11176;51.448;6.650;2023-03-20T11:12:01;6.90;;;2.67;;
22024;SDS011;11176;51.448;6.650;2023-03-20T11:14:32;9.23;;;2.65;;
22024;SDS011;11176;51.448;6.650;2023-03-20T11:17:01;10.70;;;2.63;;
22024;SDS011;11176;51.448;6.650;2023-03-20T11:19:33;7.68;;;2.30;;
22024;SDS011;11176;51.448;6.650;2023-03-20T11:24:48;8.88;;;2.40;;
22024;SDS011;11176;51.448;6.650;2023-03-20T11:27:23;5.13;;;2.35;;
22024;SDS011;11176;51.448;6.650;2023-03-20T11:29:52;5.95;;;2.20;;
22024;SDS011;11176;51.448;6.650;2023-03-20T11:34:56;11.25;;;2.65;;
22024;SDS011;11176;51.448;6.650;2023-03-20T11:37:34;8.25;;;2.40;;
22024;SDS011;11176;51.448;6.650;2023-03-20T11:40:14;8.20;;;2.00;;
22024;SDS011;11176;51.448;6.650;2023-03-20T11:45:53;7.32;;;2.10;;
22024;SDS011;11176;51.448;6.650;2023-03-20T11:48:23;7.95;;;2.40;;
22024;SDS011;11176;51.448;6.650;2023-03-20T11:50:56;8.88;;;2.60;;
22024;SDS011;11176;51.448;6.650;2023-03-20T11:56:10;6.13;;;2.28;;
22024;SDS011;11176;51.448;6.650;2023-03-20T11:59:00;8.50;;;2.50;;
22024;SDS011;11176;51.448;6.650;2023-03-20T12:01:40;5.13;;;2.35;;
22024;SDS011;11176;51.448;6.650;2023-03-20T12:04:13;6.80;;;2.55;;
22024;SDS011;11176;51.448;6.650;2023-03-20T12:06:46;6.70;;;2.30;;
22024;SDS011;11176;51.448;6.650;2023-03-20T12:14:50;9.05;;;2.65;;
22024;SDS011;11176;51.448;6.650;2023-03-20T12:18:24;8.98;;;3.10;;
22024;SDS011;11176;51.448;6.650;2023-03-20T12:20:30;6.03;;;2.88;;
22024;SDS011;11176;51.448;6.650;2023-03-20T12:23:10;8.98;;;3.40;;
22024;SDS011;11176;51.448;6.650;2023-03-20T12:25:39;6.90;;;3.08;;
22024;SDS011;11176;51.448;6.650;2023-03-20T12:31:13;8.70;;;3.65;;
22024;SDS011;11176;51.448;6.650;2023-03-20T12:33:48;7.90;;;3.55;;
22024;SDS011;11176;51.448;6.650;2023-03-20T12:36:24;9.75;;;3.67;;
22024;SDS011;11176;51.448;6.650;2023-03-20T12:38:57;11.05;;;3.85;;
22024;SDS011;11176;51.448;6.650;2023-03-20T12:42:10;10.82;;;3.88;;
22024;SDS011;11176;51.448;6.650;2023-03-20T12:58:15;9.52;;;3.35;;
22024;SDS011;11176;51.448;6.650;2023-03-20T13:03:22;8.05;;;3.78;;
22024;SDS011;11176;51.448;6.650;2023-03-20T13:11:11;7.03;;;3.33;;
22024;SDS011;11176;51.448;6.650;2023-03-20T13:13:42;7.78;;;3.78;;
22024;SDS011;11176;51.448;6.650;2023-03-20T13:16:23;9.60;;;3.45;;
22024;SDS011;11176;51.448;6.650;2023-03-20T13:19:16;6.07;;;3.08;;
22024;SDS011;11176;51.448;6.650;2023-03-20T13:24:54;8.43;;;3.30;;
22024;SDS011;11176;51.448;6.650;2023-03-20T13:27:37;9.23;;;3.80;;
22024;SDS011;11176;51.448;6.650;2023-03-20T13:30:25;9.40;;;3.47;;
22024;SDS011;11176;51.448;6.650;2023-03-20T13:33:08;9.18;;;3.42;;
22024;SDS011;11176;51.448;6.650;2023-03-20T13:36:06;9.65;;;3.03;;
22024;SDS011;11176;51.448;6.650;2023-03-20T13:38:51;12.70;;;3.42;;
22024;SDS011;11176;51.448;6.650;2023-03-20T13:41:24;9.55;;;3.28;;
22024;SDS011;11176;51.448;6.650;2023-03-20T13:43:53;5.80;;;2.88;;
22024;SDS011;11176;51.448;6.650;2023-03-20T13:46:25;11.82;;;2.95;;
22024;SDS011;11176;51.448;6.650;2023-03-20T13:48:57;7.32;;;2.72;;
22024;SDS011;11176;51.448;6.650;2023-03-20T13:51:46;7.57;;;3.15;;
22024;SDS011;11176;51.448;6.650;2023-03-20T13:54:40;7.38;;;2.85;;
22024;SDS011;11176;51.448;6.650;2023-03-20T13:57:42;7.88;;;2.80;;
22024;SDS011;11176;51.448;6.650;2023-03-20T14:00:22;12.23;;;2.63;;
22024;SDS011;11176;51.448;6.650;2023-03-20T14:05:46;9.10;;;2.90;;
22024;SDS011;11176;51.448;6.650;2023-03-20T14:13:36;7.00;;;2.67;;
22024;SDS011;11176;51.448;6.650;2023-03-20T14:16:03;7.57;;;2.55;;
22024;SDS011;11176;51.448;6.650;2023-03-20T14:18:33;9.02;;;3.05;;
22024;SDS011;11176;51.448;6.650;2023-03-20T14:21:02;12.50;;;3.47;;
22024;SDS011;11176;51.448;6.650;2023-03-20T14:23:36;15.02;;;3.33;;
22024;SDS011;11176;51.448;6.650;2023-03-20T14:26:08;9.52;;;3.28;;
22024;SDS011;11176;51.448;6.650;2023-03-20T14:29:30;9.73;;;2.63;;
22024;SDS011;11176;51.448;6.650;2023-03-20T14:31:37;10.53;;;3.23;;
22024;SDS011;11176;51.448;6.650;2023-03-20T14:34:11;11.75;;;2.95;;
22024;SDS011;11176;51.448;6.650;2023-03-20T14:50:25;9.45;;;3.28;;
22024;SDS011;11176;51.448;6.650;2023-03-20T14:53:15;9.63;;;3.40;;
22024;SDS011;11176;51.448;6.650;2023-03-20T14:58:34;10.98;;;3.85;;
22024;SDS011;11176;51.448;6.650;2023-03-20T15:03:48;11.10;;;3.95;;
22024;SDS011;11176;51.448;6.650;2023-03-20T15:06:18;12.68;;;4.20;;
22024;SDS011;11176;51.448;6.650;2023-03-20T15:09:08;12.68;;;3.70;;
22024;SDS011;11176;51.448;6.650;2023-03-20T15:11:35;8.93;;;3.70;;
22024;SDS011;11176;51.448;6.650;2023-03-20T15:14:06;14.45;;;3.78;;
22024;SDS011;11176;51.448;6.650;2023-03-20T15:16:36;11.02;;;3.15;;
22024;SDS011;11176;51.448;6.650;2023-03-20T15:19:05;11.60;;;4.05;;
22024;SDS011;11176;51.448;6.650;2023-03-20T15:21:43;8.00;;;3.42;;
22024;SDS011;11176;51.448;6.650;2023-03-20T15:24:16;13.57;;;3.78;;
22024;SDS011;11176;51.448;6.650;2023-03-20T15:26:45;11.27;;;3.78;;
22024;SDS011;11176;51.448;6.650;2023-03-20T15:29:13;14.10;;;3.92;;
22024;SDS011;11176;51.448;6.650;2023-03-20T15:31:44;10.50;;;3.95;;
22024;SDS011;11176;51.448;6.650;2023-03-20T15:34:13;11.45;;;4.20;;
22024;SDS011;11176;51.448;6.650;2023-03-20T15:36:48;10.75;;;4.00;;
22024;SDS011;11176;51.448;6.650;2023-03-20T15:39:21;11.40;;;4.03;;
22024;SDS011;11176;51.448;6.650;2023-03-20T15:44:35;10.57;;;3.60;;
22024;SDS011;11176;51.448;6.650;2023-03-20T15:47:10;9.68;;;3.78;;
22024;SDS011;11176;51.448;6.650;2023-03-20T15:49:52;14.13;;;4.18;;
22024;SDS011;11176;51.448;6.650;2023-03-20T15:55:03;11.23;;;4.20;;
22024;SDS011;11176;51.448;6.650;2023-03-20T15:57:33;13.07;;;4.38;;
22024;SDS011;11176;51.448;6.650;2023-03-20T16:00:05;8.50;;;3.25;;
22024;SDS011;11176;51.448;6.650;2023-03-20T16:02:35;10.32;;;3.25;;
22024;SDS011;11176;51.448;6.650;2023-03-20T16:05:02;11.18;;;4.00;;
22024;SDS011;11176;51.448;6.650;2023-03-20T16:07:31;11.02;;;3.92;;
22024;SDS011;11176;51.448;6.650;2023-03-20T16:09:58;16.00;;;4.55;;
22024;SDS011;11176;51.448;6.650;2023-03-20T16:12:25;11.80;;;3.60;;
22024;SDS011;11176;51.448;6.650;2023-03-20T16:14:53;10.52;;;3.88;;
22024;SDS011;11176;51.448;6.650;2023-03-20T16:17:21;14.40;;;4.53;;
22024;SDS011;11176;51.448;6.650;2023-03-20T16:19:50;11.40;;;3.78;;
22024;SDS011;11176;51.448;6.650;2023-03-20T16:22:27;8.00;;;3.88;;
22024;SDS011;11176;51.448;6.650;2023-03-20T16:24:58;13.73;;;4.70;;
22024;SDS011;11176;51.448;6.650;2023-03-20T16:27:27;15.00;;;5.00;;
22024;SDS011;11176;51.448;6.650;2023-03-20T16:29:57;13.60;;;3.75;;
22024;SDS011;11176;51.448;6.650;2023-03-20T16:35:04;11.13;;;4.70;;
22024;SDS011;11176;51.448;6.650;2023-03-20T16:37:41;13.93;;;6.38;;
22024;SDS011;11176;51.448;6.650;2023-03-20T16:42:54;14.20;;;6.15;;
22024;SDS011;11176;51.448;6.650;2023-03-20T16:45:24;12.75;;;5.30;;
22024;SDS011;11176;51.448;6.650;2023-03-20T16:47:50;14.73;;;4.45;;
22024;SDS011;11176;51.448;6.650;2023-03-20T16:50:37;10.25;;;4.00;;
22024;SDS011;11176;51.448;6.650;2023-03-20T16:53:09;8.35;;;3.55;;
22024;SDS011;11176;51.448;6.650;2023-03-20T16:55:46;7.57;;;3.88;;
22024;SDS011;11176;51.448;6.650;2023-03-20T16:58:26;12.90;;;4.57;;
22024;SDS011;11176;51.448;6.650;2023-03-20T17:00:59;9.40;;;4.53;;
22024;SDS011;11176;51.448;6.650;2023-03-20T17:03:34;12.18;;;5.57;;
22024;SDS011;11176;51.448;6.650;2023-03-20T17:08:50;13.68;;;4.53;;
22024;SDS011;11176;51.448;6.650;2023-03-20T17:11:26;8.50;;;3.90;;
22024;SDS011;11176;51.448;6.650;2023-03-20T17:13:56;13.00;;;4.20;;
22024;SDS011;11176;51.448;6.650;2023-03-20T17:16:22;11.95;;;3.72;;
22024;SDS011;11176;51.448;6.650;2023-03-20T17:18:59;10.23;;;3.85;;
22024;SDS011;11176;51.448;6.650;2023-03-20T17:21:28;10.93;;;3.92;;
22024;SDS011;11176;51.448;6.650;2023-03-20T17:23:55;9.73;;;3.35;;
22024;SDS011;11176;51.448;6.650;2023-03-20T17:26:21;10.80;;;3.70;;
22024;SDS011;11176;51.448;6.650;2023-03-20T17:28:48;11.90;;;4.00;;
22024;SDS011;11176;51.448;6.650;2023-03-20T17:31:16;10.25;;;4.07;;
22024;SDS011;11176;51.448;6.650;2023-03-20T17:33:43;7.55;;;3.42;;
22024;SDS011;11176;51.448;6.650;2023-03-20T17:36:13;8.93;;;3.92;;